Flight Track Log - Related Links

Times and Time Zones

All times are in EDT time to prevent confusion due to time zone crossing. See the SWA2147 flight status page for this flight to view local times or setup timezone preferences in your user account.

Time Position Orientation Groundspeed Altitude Reporting Facility
EDT Latitude Longitude Course Direction KTS MPH feet Rate Location/Type
Wed 10:36:38 PM 41.7833 -87.8000 56° Northeast 192 221 2,900  Level Chicago TRACON
Wed 10:37:38 PM 41.8167 -87.7333 56° Northeast 281 323 4,600 818 Climbing Chicago TRACON
Wed 10:39:12 PM 41.8172 -87.5836 90° East 284 327 5,000 697 Climbing Chicago Center
Wed 10:40:13 PM 41.8228 -87.4778 86° East 286 329 6,400 2,754 Climbing Chicago Center
Wed 10:41:14 PM 41.8047 -87.3464 100° East 302 348 10,600 3,561 Climbing Chicago Center
Wed 10:42:16 PM 41.7875 -87.2308 101° East 316 364 13,700 2,585 Climbing Chicago Center
Wed 10:43:17 PM 41.7667 -87.1006 102° East 357 411 15,900 2,213 Climbing Chicago Center
Wed 10:44:18 PM 41.7619 -86.9569 92° East 392 451 18,200 2,293 Climbing Chicago Center
Wed 10:45:20 PM 41.7664 -86.8069 88° East 403 464 20,600 2,213 Climbing Chicago Center
Wed 10:46:20 PM 41.7658 -86.6492 90° East 421 484 22,700 2,016 Climbing Chicago Center
Wed 10:47:22 PM 41.7675 -86.4803 89° East 449 517 24,700 2,000 Climbing Chicago Center
Wed 10:48:23 PM 41.7700 -86.3083 89° East 458 527 26,800 1,721 Climbing Chicago Center
Wed 10:49:24 PM 41.7989 -86.1394 77° East 464 534 28,200 1,230 Climbing Chicago Center
Wed 10:50:25 PM 41.8294 -85.9611 77° East 480 552 29,300 1,328 Climbing Chicago Center
Wed 10:51:26 PM 41.8669 -85.7389 77° East 503 579 30,900 1,463 Climbing Chicago Center
Wed 10:52:28 PM 41.8989 -85.5483 77° East 514 592 32,300 1,268 Climbing Chicago Center
Wed 10:53:29 PM 41.9308 -85.3564 77° East 520 598 33,500 1,082 Climbing Chicago Center
Wed 10:54:30 PM 41.9519 -85.1597 82° East 526 605 34,500 738 Climbing Chicago Center
Wed 10:55:31 PM 41.9506 -84.9608 90° East 531 611 35,000 246 Climbing Chicago Center
Wed 10:56:32 PM 41.9492 -84.7597 90° East 536 617 35,000  Level Chicago Center
Wed 10:57:33 PM 41.9486 -84.5636 90° East 527 606 35,000  Level Chicago Center
Wed 10:58:38 PM 41.9497 -84.3664 90° East 522 601 35,000  Level Cleveland Center
Wed 10:59:38 PM 41.9419 -84.1483 93° East 522 601 35,000  Level Cleveland Center
Wed 11:00:38 PM 41.9481 -83.9531 88° East 522 601 35,000  Level Cleveland Center
Wed 11:01:38 PM 41.9619 -83.7583 84° East 517 595 35,000  Level Cleveland Center
Wed 11:02:38 PM 41.9733 -83.5633 85° East 517 595 35,000  Level Cleveland Center
Wed 11:03:38 PM 41.9883 -83.3853 83° East 517 595 35,000  Level Cleveland Center
Wed 11:04:38 PM 41.9992 -83.1900 86° East 517 595 35,000  Level Cleveland Center
Wed 11:05:38 PM 42.0117 -82.9978 85° East 517 595 35,000  Level Cleveland Center
Wed 11:06:38 PM 42.0242 -82.7969 85° East 522 601 35,000  Level Cleveland Center
Wed 11:07:38 PM 42.0361 -82.6017 85° East 522 601 35,000  Level Cleveland Center
Wed 11:08:38 PM 42.0478 -82.4033 85° East 522 601 35,000  Level Cleveland Center
Wed 11:09:38 PM 42.0589 -82.2081 86° East 522 601 35,000  Level Cleveland Center
Wed 11:10:38 PM 42.0700 -81.9900 86° East 527 606 35,000  Level Cleveland Center
Wed 11:11:38 PM 42.0806 -81.8086 85° East 532 612 35,000  Level Cleveland Center
Wed 11:12:38 PM 42.0908 -81.6100 86° East 531 611 35,000  Level Cleveland Center
Wed 11:13:38 PM 42.1008 -81.4114 86° East 537 618 35,000  Level Cleveland Center
Wed 11:14:38 PM 42.1083 -81.2128 87° East 537 618 35,000  Level Cleveland Center
Wed 11:15:38 PM 42.1175 -81.0086 86° East 537 618 35,000  Level Cleveland Center
Wed 11:16:38 PM 42.1286 -80.7875 86° East 537 618 35,000  Level Cleveland Center
Wed 11:17:38 PM 42.1372 -80.5917 87° East 537 618 35,000  Level Cleveland Center
Wed 11:18:38 PM 42.1453 -80.3900 87° East 537 618 35,000  Level Cleveland Center
Wed 11:19:38 PM 42.1531 -80.1911 87° East 537 618 35,000  Level Cleveland Center
Wed 11:20:38 PM 42.1628 -79.9922 86° East 537 618 35,000  Level Cleveland Center
Wed 11:21:38 PM 42.1681 -79.8100 88° East 537 618 35,000  Level Cleveland Center
Wed 11:22:38 PM 42.1747 -79.6111 87° East 532 612 35,000  Level Cleveland Center
Wed 11:23:38 PM 42.1814 -79.4147 87° East 532 612 35,000  Level Cleveland Center
Wed 11:24:38 PM 42.1853 -79.2158 88° East 532 612 35,000  Level Cleveland Center
Wed 11:25:38 PM 42.2017 -79.0219 83° East 527 606 35,000  Level Cleveland Center
Wed 11:26:38 PM 42.2297 -78.8053 80° East 527 606 35,000  Level Cleveland Center
Wed 11:27:38 PM 42.2558 -78.6111 80° East 527 606 35,000  Level Cleveland Center
Wed 11:28:38 PM 42.2794 -78.4139 81° East 527 606 35,000  Level Cleveland Center
Wed 11:29:38 PM 42.3025 -78.2192 81° East 522 601 35,000  Level Cleveland Center
Wed 11:30:38 PM 42.3256 -78.0275 81° East 522 601 35,000  Level Cleveland Center
Wed 11:31:38 PM 42.3483 -77.8356 81° East 522 601 35,000  Level Cleveland Center
Wed 11:33:16 PM 42.3817 -77.5400 81° East 531 611 35,000  Level Boston Center
Wed 11:34:16 PM 42.4044 -77.3533 81° East 531 611 35,000  Level Boston Center
Wed 11:35:16 PM 42.4253 -77.1578 82° East 521 600 35,000  Level Boston Center
Wed 11:36:16 PM 42.4456 -76.9681 82° East 516 594 35,000  Level Boston Center
Wed 11:37:16 PM 42.4678 -76.7725 81° East 516 594 35,000  Level Boston Center
Wed 11:38:16 PM 42.4875 -76.5822 82° East 521 600 35,000  Level Boston Center
Wed 11:39:16 PM 42.5089 -76.3892 81° East 516 594 35,000  Level Boston Center
Wed 11:40:16 PM 42.5308 -76.1708 82° East 521 600 35,000 -250 Level Boston Center
Wed 11:41:16 PM 42.5497 -75.9747 82° East 521 600 34,500 -750 Descending Boston Center
Wed 11:42:16 PM 42.5703 -75.7783 82° East 521 600 33,500 -1,000 Descending Boston Center
Wed 11:43:16 PM 42.5883 -75.5819 83° East 521 600 32,500 -1,000 Descending Boston Center
Wed 11:44:16 PM 42.6081 -75.3911 82° East 521 600 31,500 -950 Descending Boston Center
Wed 11:45:16 PM 42.6231 -75.2053 84° East 508 585 30,600 -1,000 Descending Boston Center
Wed 11:46:16 PM 42.6419 -75.0256 82° East 490 564 29,500 -800 Descending Boston Center
Wed 11:47:16 PM 42.6583 -74.8456 83° East 484 557 29,000 -250 Descending Boston Center
Wed 11:48:16 PM 42.6725 -74.6711 84° East 477 549 29,000  Level Boston Center
Wed 11:49:16 PM 42.6883 -74.4936 83° East 472 543 29,000  Level Boston Center
Wed 11:50:16 PM 42.7036 -74.3217 83° East 467 537 29,000  Level Boston Center
Wed 11:51:16 PM 42.7169 -74.1442 84° East 462 532 29,000  Level Boston Center
Wed 11:52:16 PM 42.7319 -73.9750 83° East 462 532 29,000 -400 Level Boston Center
Wed 11:53:16 PM 42.7444 -73.8028 84° East 462 532 28,200 -950 Descending Boston Center
Wed 11:54:16 PM 42.7547 -73.6333 85° East 457 526 27,100 -1,050 Descending Boston Center
Wed 11:55:16 PM 42.7606 -73.4608 87° East 451 519 26,100 -1,100 Descending Boston Center
Wed 11:56:16 PM 42.7681 -73.2969 86° East 445 512 24,900 -1,550 Descending Boston Center
Wed 11:57:16 PM 42.7733 -73.1303 87° East 439 505 23,000 -1,800 Descending Boston Center
Wed 11:58:16 PM 42.7764 -72.9775 88° East 442 509 21,300 -1,750 Descending Boston Center
Wed 11:59:16 PM 42.7811 -72.8333 87° East 423 487 19,500 -1,800 Descending Boston Center
Thu 12:00:16 AM 42.7856 -72.6892 88° East 399 459 17,700 -1,700 Descending Boston Center
Thu 12:01:16 AM 42.7900 -72.5419 88° East 386 444 16,100 -1,650 Descending Boston Center
Thu 12:02:16 AM 42.7922 -72.4033 89° East 376 433 14,400 -1,850 Descending Boston Center
Thu 12:03:16 AM 42.7961 -72.2478 88° East 370 426 12,400 -1,750 Descending Boston Center
Thu 12:04:16 AM 42.8064 -72.1089 84° East 365 420 10,900 -1,200 Descending Boston Center
Thu 12:05:16 AM 42.8497 -71.9897 64° Northeast 354 407 10,000 -1,100 Descending Boston Center
Thu 12:06:16 AM 42.9014 -71.8844 56° Northeast 339 390 8,700 -1,500 Descending Boston Center
Thu 12:07:16 AM 42.9486 -71.7878 56° Northeast 316 364 7,000 -1,800 Descending Boston Center
Thu 12:08:16 AM 42.9961 -71.6878 57° Northeast 311 358 5,100 -1,200 Descending Boston Center
Thu 12:09:16 AM 43.0414 -71.5992 55° Northeast 290 334 4,600 -1,000 Descending Boston Center
Thu 12:10:16 AM 43.0636 -71.5136 70° East 256 295 3,100 -1,300 Descending Boston Center
Thu 12:11:16 AM 43.0194 -71.4889 158° South 151 174 2,000 -900 Descending Boston Center
Thu 12:12:16 AM 42.9839 -71.4667 155° Southeast 145 167 1,300 -800 Descending Boston Center
Thu 12:13:16 AM 42.9483 -71.4444 155° Southeast 140 161 400 -500 Descending Boston Center
Thu 12:14:16 AM 42.9147 -71.4253 157° South 140 161 300 14,300 Descending Boston Center
Thu 12:15:16 AM 42.8792 -71.4031 155° Southeast 140 161 29,000 14,350 Climbing Boston Center
Thu 12:16:16 AM 42.8414 -71.3839 160° South 140 161 29,000  Level Boston Center
Thu 12:17:16 AM 42.8058 -71.3619 156° South 140 161 29,000  Level Boston Center
Thu 12:19:00 AM 42.9167 -71.4333 316° Northwest  Level FlightAware Approximate
Thu 12:26:00 AM 42.9328 -71.4358 316° Northwest  Level Estimated
Thu 12:27:00 AM 42.9328 -71.4358 316° Northwest  Level Estimated
Thu 12:28:00 AM 42.9328 -71.4358 316° Northwest  Level Estimated

Login

Don't have an account? Register now (free) for customized features, flight alerts, and more!